Time;durP1;ratioP1;P1;durP2;ratioP2;P2;SDS_P1;SDS_P2;PMS_P1;PMS_P2;Temp;Humidity;BMP_temperature;BMP_pressure;BME280_temperature;BME280_humidity;BME280_pressure;Samples;Min_cycle;Max_cycle;Signal;HPM_P1;HPM_P2
2023/05/09 00:02:02;;;;;;;5.05;1.80;;;;;;;21.54;39.87;101638.09;5043325;28;20029;-43
2023/05/09 00:04:29;;;;;;;3.53;1.52;;;;;;;21.56;38.20;101632.38;5034889;28;20026;-42
2023/05/09 00:06:55;;;;;;;4.25;1.35;;;;;;;21.60;38.88;101628.88;5034332;28;20585;-42
2023/05/09 00:09:21;;;;;;;5.68;1.45;;;;;;;21.52;38.98;101637.50;5034853;28;20112;-42
2023/05/09 00:11:47;;;;;;;3.08;1.50;;;;;;;21.26;40.41;101630.16;5034446;28;20072;-41
2023/05/09 00:14:13;;;;;;;4.63;1.40;;;;;;;21.27;39.82;101635.38;5034930;28;20100;-42
2023/05/09 00:16:40;;;;;;;5.35;1.52;;;;;;;21.24;39.59;101622.25;5034301;28;20029;-42
2023/05/09 00:19:06;;;;;;;4.47;1.40;;;;;;;21.24;39.28;101619.53;5034219;28;20021;-42
2023/05/09 00:21:33;;;;;;;3.60;1.33;;;;;;;20.98;40.30;101621.19;5034573;28;20032;-41
2023/05/09 00:23:59;;;;;;;6.30;1.45;;;;;;;20.84;39.65;101617.22;5034380;28;20030;-43
2023/05/09 00:26:26;;;;;;;5.78;1.40;;;;;;;21.09;39.61;101612.03;5033911;28;20044;-44
2023/05/09 00:28:53;;;;;;;4.47;1.45;;;;;;;21.01;39.04;101604.34;5034493;28;20033;-42
2023/05/09 00:31:20;;;;;;;3.20;1.38;;;;;;;21.05;39.13;101605.50;5034335;28;20034;-45
2023/05/09 00:33:46;;;;;;;6.18;1.58;;;;;;;20.37;37.47;101600.59;5037079;28;20021;-43
2023/05/09 00:36:13;;;;;;;4.18;1.30;;;;;;;20.62;38.91;101595.50;5033747;28;20117;-42
2023/05/09 00:38:39;;;;;;;4.18;1.10;;;;;;;20.71;39.07;101599.41;5033755;28;20033;-43
2023/05/09 00:41:05;;;;;;;5.30;1.73;;;;;;;20.79;37.76;101600.84;5037586;28;20082;-46
2023/05/09 00:43:31;;;;;;;3.17;1.30;;;;;;;20.54;39.13;101604.09;5039948;28;20064;-42
2023/05/09 00:45:58;;;;;;;4.03;1.40;;;;;;;20.64;40.01;101593.34;5035096;28;20536;-43
2023/05/09 00:48:24;;;;;;;6.40;1.63;;;;;;;20.43;39.55;101596.84;5037713;28;20046;-43
2023/05/09 00:50:51;;;;;;;4.65;1.48;;;;;;;20.52;38.33;101593.47;5049783;28;20108;-42
2023/05/09 00:53:19;;;;;;;5.20;1.30;;;;;;;20.58;38.69;101599.78;5037560;28;20036;-42
2023/05/09 00:55:46;;;;;;;3.42;1.20;;;;;;;20.54;39.55;101598.66;5060388;23;20055;-42
2023/05/09 00:58:13;;;;;;;3.55;1.23;;;;;;;20.28;39.00;101611.91;5053522;28;20543;-42
2023/05/09 01:00:39;;;;;;;3.72;1.08;;;;;;;20.40;38.52;101597.38;5042416;28;20082;-44
2023/05/09 01:03:07;;;;;;;4.22;1.42;;;;;;;20.41;38.85;101599.84;5033348;28;20113;-42
2023/05/09 01:06:03;;;;;;;5.95;1.50;;;;;;;20.35;40.82;101600.03;5033283;28;20029;-43
2023/05/09 01:08:41;;;;;;;3.47;1.45;;;;;;;20.12;41.11;101601.09;5045170;28;20389;-43
2023/05/09 01:11:20;;;;;;;6.57;1.85;;;;;;;20.11;40.27;101599.44;5053327;28;20044;-42
2023/05/09 01:14:05;;;;;;;3.90;1.30;;;;;;;20.10;42.08;101595.91;5052962;28;20052;-43
2023/05/09 01:16:47;;;;;;;6.60;1.65;;;;;;;20.12;41.47;101599.19;5052742;28;20033;-42
2023/05/09 01:19:31;;;;;;;7.07;1.10;;;;;;;20.01;40.46;101597.41;5053091;28;20025;-43
2023/05/09 01:22:00;;;;;;;3.85;1.77;;;;;;;20.03;43.02;101600.69;5052928;28;20037;-43
2023/05/09 01:25:06;;;;;;;6.35;1.75;;;;;;;20.00;40.66;101593.06;5051969;28;20043;-42
2023/05/09 01:28:06;;;;;;;5.13;1.60;;;;;;;20.03;41.99;101593.34;5011576;28;20451;-44
2023/05/09 01:30:36;;;;;;;4.30;1.55;;;;;;;20.07;41.50;101596.41;5050755;28;20052;-43
2023/05/09 01:33:07;;;;;;;5.63;1.80;;;;;;;20.06;42.54;101592.03;5052616;28;20021;-43
2023/05/09 01:35:36;;;;;;;4.70;1.48;;;;;;;19.89;41.76;101596.69;5051737;28;20037;-43
2023/05/09 01:38:09;;;;;;;6.72;1.67;;;;;;;19.91;43.02;101598.06;5052272;28;20021;-44
2023/05/09 01:40:38;;;;;;;5.57;1.73;;;;;;;20.10;41.72;101593.19;5050755;28;20025;-43
2023/05/09 01:43:08;;;;;;;6.85;1.42;;;;;;;19.97;43.10;101593.53;5051251;28;20075;-43
2023/05/09 01:45:37;;;;;;;4.10;1.50;;;;;;;20.08;41.80;101595.31;5052964;28;20381;-44
2023/05/09 01:48:07;;;;;;;4.78;1.42;;;;;;;20.14;42.71;101593.50;5051153;28;20031;-43
2023/05/09 01:50:35;;;;;;;5.90;1.63;;;;;;;20.24;43.02;101589.03;5052675;28;20029;-44
2023/05/09 01:53:02;;;;;;;3.75;1.50;;;;;;;20.21;43.08;101597.69;5051039;28;20031;-43
2023/05/09 01:55:32;;;;;;;4.57;1.40;;;;;;;20.11;43.95;101605.72;5052169;28;20045;-44
2023/05/09 01:58:00;;;;;;;4.47;1.52;;;;;;;19.95;43.36;101598.41;5047564;28;20025;-45
2023/05/09 02:00:27;;;;;;;5.78;1.35;;;;;;;20.05;43.90;101601.28;5052228;28;20064;-44
2023/05/09 02:02:54;;;;;;;6.50;1.52;;;;;;;19.89;44.27;101607.56;5051347;28;20045;-44
2023/05/09 02:05:25;;;;;;;6.75;1.75;;;;;;;19.76;44.39;101614.13;5034505;28;20036;-43
2023/05/09 02:07:53;;;;;;;7.88;2.17;;;;;;;19.86;45.02;101616.19;5050123;28;20107;-47
2023/05/09 02:10:21;;;;;;;6.85;1.63;;;;;;;19.63;45.74;101609.88;5052100;28;20060;-46
2023/05/09 02:12:47;;;;;;;5.45;1.58;;;;;;;19.47;46.59;101603.34;5050491;28;20044;-46
2023/05/09 02:15:14;;;;;;;7.15;1.95;;;;;;;19.45;46.24;101618.25;5052153;28;20021;-46
2023/05/09 02:17:41;;;;;;;6.15;1.95;;;;;;;19.38;46.53;101618.41;5049945;28;20017;-49
2023/05/09 02:20:12;;;;;;;7.35;2.00;;;;;;;19.56;45.95;101619.25;5052015;28;20033;-49
2023/05/09 02:22:42;;;;;;;5.85;1.70;;;;;;;19.66;45.92;101614.84;5051365;28;20031;-46
2023/05/09 02:25:13;;;;;;;4.68;1.88;;;;;;;19.77;45.91;101618.53;5050877;28;20029;-47
2023/05/09 02:27:42;;;;;;;5.05;1.50;;;;;;;19.90;45.40;101629.03;5047597;28;20090;-48
2023/05/09 02:30:13;;;;;;;5.30;1.70;;;;;;;19.92;45.22;101626.88;5031897;28;20029;-51
2023/05/09 02:32:42;;;;;;;7.13;1.63;;;;;;;19.91;44.62;101622.53;5039658;28;20017;-48
2023/05/09 02:35:10;;;;;;;5.22;1.70;;;;;;;19.98;45.11;101619.63;5050555;28;20037;-48
2023/05/09 02:37:38;;;;;;;6.80;2.00;;;;;;;19.97;44.82;101632.41;5050104;28;20021;-45
2023/05/09 02:40:08;;;;;;;4.93;1.58;;;;;;;19.48;46.38;101617.75;5041919;28;20159;-47
2023/05/09 02:42:34;;;;;;;6.55;1.98;;;;;;;19.41;46.77;101617.91;5049870;28;20063;-46
2023/05/09 02:45:00;;;;;;;7.43;2.42;;;;;;;18.78;48.64;101624.38;5051736;28;20428;-46
2023/05/09 02:47:27;;;;;;;6.68;1.92;;;;;;;18.43;48.93;101614.44;5051613;28;20445;-48
2023/05/09 02:49:53;;;;;;;8.50;1.90;;;;;;;18.28;48.93;101616.00;5051983;28;20357;-47
2023/05/09 02:52:20;;;;;;;6.57;1.77;;;;;;;17.97;50.71;101617.19;5052222;28;20021;-46
2023/05/09 02:54:47;;;;;;;7.90;1.92;;;;;;;17.93;50.41;101616.81;5042387;28;20037;-45
2023/05/09 02:57:13;;;;;;;5.32;2.20;;;;;;;18.03;51.64;101611.66;5040567;28;20035;-48
2023/05/09 02:59:39;;;;;;;10.63;2.20;;;;;;;17.30;53.65;101614.72;5051920;28;20025;-49
2023/05/09 03:02:06;;;;;;;7.05;1.58;;;;;;;17.35;50.51;101621.09;5051645;28;20037;-45
2023/05/09 03:04:32;;;;;;;6.13;1.40;;;;;;;16.88;50.93;101626.38;5051531;28;20043;-46
2023/05/09 03:06:58;;;;;;;9.73;1.52;;;;;;;16.51;51.96;101627.44;5051172;28;20041;-50
2023/05/09 03:09:25;;;;;;;7.03;1.30;;;;;;;16.30;52.54;101629.53;5052016;28;20447;-46
2023/05/09 03:11:51;;;;;;;7.13;1.92;;;;;;;15.64;51.90;101635.56;5051959;28;20029;-49
2023/05/09 03:14:17;;;;;;;8.55;2.42;;;;;;;15.58;51.94;101629.13;5051787;28;20385;-49
2023/05/09 03:16:43;;;;;;;9.20;2.00;;;;;;;15.46;52.37;101641.69;5051640;28;20539;-47
2023/05/09 03:19:09;;;;;;;5.32;1.77;;;;;;;15.20;53.04;101633.78;5051584;28;20025;-46
2023/05/09 03:21:36;;;;;;;5.22;1.70;;;;;;;15.24;52.03;101632.31;5051692;28;20466;-47
2023/05/09 03:24:03;;;;;;;6.82;1.40;;;;;;;15.04;51.98;101630.53;5051547;28;20061;-47
2023/05/09 03:26:30;;;;;;;6.10;2.22;;;;;;;15.02;53.12;101634.50;5051304;28;20090;-46
2023/05/09 03:28:56;;;;;;;7.03;1.42;;;;;;;14.87;52.52;101634.78;5058714;28;20413;-49
2023/05/09 03:31:22;;;;;;;9.32;2.20;;;;;;;14.51;53.97;101635.38;5068286;28;20027;-46
2023/05/09 03:33:48;;;;;;;8.05;1.67;;;;;;;14.67;54.18;101645.66;5030521;28;20035;-46
2023/05/09 03:36:15;;;;;;;7.35;1.60;;;;;;;14.38;55.57;101641.59;5034740;28;20040;-49
2023/05/09 03:38:41;;;;;;;5.00;1.13;;;;;;;14.57;55.16;101641.75;5061624;28;20075;-46
2023/05/09 03:41:07;;;;;;;5.88;1.70;;;;;;;14.36;55.38;101653.59;5058948;28;20389;-46
2023/05/09 03:43:33;;;;;;;4.95;1.70;;;;;;;14.26;55.96;101656.72;5055304;28;20025;-45
2023/05/09 03:45:59;;;;;;;6.93;1.88;;;;;;;14.12;56.76;101660.50;5055061;28;20108;-46
2023/05/09 03:48:26;;;;;;;5.13;1.50;;;;;;;14.30;56.32;101657.97;5055281;28;20492;-48
2023/05/09 03:50:52;;;;;;;9.18;1.98;;;;;;;14.42;56.28;101650.88;5055316;28;20485;-47
2023/05/09 03:53:19;;;;;;;6.68;1.98;;;;;;;14.45;56.66;101655.88;5055168;28;20033;-46
2023/05/09 03:55:45;;;;;;;6.47;1.58;;;;;;;14.44;57.07;101656.91;5049269;28;20135;-48
2023/05/09 03:58:12;;;;;;;3.63;1.30;;;;;;;14.37;57.83;101660.63;5055349;28;20040;-47
2023/05/09 04:00:39;;;;;;;8.68;2.20;;;;;;;14.29;57.79;101659.00;5055562;28;20044;-49
2023/05/09 04:03:05;;;;;;;7.65;2.08;;;;;;;14.62;56.66;101660.81;5055637;28;20028;-44
2023/05/09 04:05:35;;;;;;;9.70;2.30;;;;;;;14.31;57.53;101664.19;5055041;28;20078;-48
2023/05/09 04:08:02;;;;;;;8.77;1.80;;;;;;;14.17;58.33;101666.09;5054764;28;20025;-48
2023/05/09 04:10:30;;;;;;;6.78;1.42;;;;;;;14.38;58.08;101668.53;5054845;28;20060;-48
2023/05/09 04:12:57;;;;;;;7.18;2.10;;;;;;;14.36;57.87;101664.38;5054947;28;20037;-48
2023/05/09 04:15:23;;;;;;;8.55;1.85;;;;;;;14.31;58.40;101665.00;5054721;28;20100;-49
2023/05/09 04:17:49;;;;;;;10.20;2.60;;;;;;;14.47;57.68;101669.97;5054515;28;20024;-46
2023/05/09 04:20:15;;;;;;;8.27;1.60;;;;;;;14.43;57.88;101674.09;5054726;28;20039;-50
2023/05/09 04:22:42;;;;;;;8.43;2.13;;;;;;;14.25;58.16;101674.75;5054591;28;20025;-47
2023/05/09 04:25:11;;;;;;;7.72;2.33;;;;;;;14.16;58.56;101683.28;5054472;28;20489;-50
2023/05/09 04:27:38;;;;;;;8.57;2.13;;;;;;;14.30;58.20;101681.38;5054476;28;20029;-48
2023/05/09 04:30:05;;;;;;;8.88;1.98;;;;;;;14.02;59.38;101681.63;5052025;28;20074;-47
2023/05/09 04:32:31;;;;;;;10.82;2.28;;;;;;;13.89;60.44;101683.28;5039762;28;20044;-46
2023/05/09 04:34:58;;;;;;;9.65;2.10;;;;;;;13.72;60.86;101680.19;5034256;28;20477;-47
2023/05/09 04:37:24;;;;;;;7.95;1.83;;;;;;;13.86;60.63;101683.69;5033477;28;20036;-47
2023/05/09 04:39:51;;;;;;;6.13;1.83;;;;;;;13.98;60.56;101690.09;5038060;28;20025;-48
2023/05/09 04:42:17;;;;;;;4.63;1.25;;;;;;;13.93;61.02;101689.88;5053252;28;20040;-48
2023/05/09 04:44:43;;;;;;;10.50;2.28;;;;;;;13.98;60.85;101687.41;5052261;28;20025;-48
2023/05/09 04:47:09;;;;;;;5.15;1.60;;;;;;;14.00;61.06;101692.59;5052520;28;20044;-46
2023/05/09 04:49:36;;;;;;;7.38;2.15;;;;;;;13.93;61.63;101678.31;5050864;28;20060;-47
2023/05/09 04:52:02;;;;;;;4.65;1.83;;;;;;;13.98;61.41;101679.34;5053644;28;20035;-46
2023/05/09 04:54:28;;;;;;;6.68;1.55;;;;;;;13.90;61.92;101690.31;5053564;28;20441;-48
2023/05/09 04:56:54;;;;;;;5.35;1.95;;;;;;;13.97;61.84;101698.38;5053450;28;20028;-46
2023/05/09 04:59:21;;;;;;;6.75;2.17;;;;;;;13.97;61.59;101693.84;5053461;28;20053;-49
2023/05/09 05:01:47;;;;;;;6.68;1.90;;;;;;;13.97;61.88;101691.13;5053726;28;20035;-47
2023/05/09 05:04:13;;;;;;;13.82;2.35;;;;;;;14.05;61.58;101697.34;5053486;28;20020;-48
2023/05/09 05:06:39;;;;;;;9.48;2.47;;;;;;;13.80;62.42;101695.28;5053325;28;20469;-46
2023/05/09 05:09:06;;;;;;;11.70;2.10;;;;;;;13.60;63.09;101697.13;5053456;28;20441;-47
2023/05/09 05:11:32;;;;;;;6.88;1.92;;;;;;;13.71;62.82;101697.38;5052098;28;20132;-47
2023/05/09 05:13:58;;;;;;;7.85;1.77;;;;;;;13.97;62.17;101695.69;5052163;28;20501;-49
2023/05/09 05:16:24;;;;;;;6.78;2.38;;;;;;;13.80;62.74;101689.06;5053012;28;20103;-48
2023/05/09 05:18:51;;;;;;;7.10;2.17;;;;;;;13.91;62.68;101688.44;5053621;28;20453;-49
2023/05/09 05:21:17;;;;;;;7.10;2.05;;;;;;;13.61;63.87;101683.47;5050273;28;20044;-49
2023/05/09 05:23:43;;;;;;;5.70;2.10;;;;;;;13.60;63.91;101689.03;5053077;28;20551;-49
2023/05/09 05:26:09;;;;;;;11.10;2.38;;;;;;;13.48;64.56;101686.97;5051580;28;20083;-45
2023/05/09 05:28:35;;;;;;;9.52;1.95;;;;;;;13.70;64.42;101684.09;5052968;28;20025;-49
2023/05/09 05:31:02;;;;;;;6.90;1.65;;;;;;;13.51;64.73;101687.59;5052119;28;20491;-46
2023/05/09 05:33:28;;;;;;;6.97;1.90;;;;;;;13.55;64.87;101681.63;5050058;28;20025;-47
2023/05/09 05:35:54;;;;;;;8.10;2.00;;;;;;;13.54;65.01;101671.03;5049683;28;20056;-44
2023/05/09 05:38:20;;;;;;;7.70;2.45;;;;;;;13.31;65.94;101682.19;5051660;28;20180;-47
2023/05/09 05:40:46;;;;;;;5.57;1.52;;;;;;;13.33;65.68;101672.06;5051668;28;20432;-49
2023/05/09 05:43:13;;;;;;;9.82;1.83;;;;;;;13.40;65.33;101679.09;5052608;28;20374;-46
2023/05/09 05:45:39;;;;;;;8.73;2.58;;;;;;;13.15;66.38;101686.03;5052403;28;20086;-49
2023/05/09 05:48:05;;;;;;;6.85;2.22;;;;;;;13.13;66.41;101671.97;5052395;28;20025;-46
2023/05/09 05:50:31;;;;;;;14.20;6.22;;;;;;;12.79;66.81;101675.56;5051580;28;20029;-48
2023/05/09 05:52:58;;;;;;;10.02;2.65;;;;;;;12.43;68.41;101680.13;5051654;28;20032;-49
2023/05/09 05:55:24;;;;;;;6.88;1.98;;;;;;;12.49;68.24;101675.00;5051237;28;20134;-49
2023/05/09 05:57:50;;;;;;;10.05;2.15;;;;;;;11.99;70.08;101668.88;5020883;28;20028;-50
2023/05/09 06:00:17;;;;;;;7.88;2.15;;;;;;;12.09;70.12;101669.38;5052239;28;20022;-49
2023/05/09 06:02:44;;;;;;;3.05;1.50;;;;;;;12.43;68.36;101669.38;5052301;28;20064;-49
2023/05/09 06:05:10;;;;;;;13.82;8.15;;;;;;;12.38;68.56;101674.56;5052487;28;20206;-47
2023/05/09 06:07:37;;;;;;;22.27;14.18;;;;;;;12.33;68.79;101668.13;5052127;28;20547;-50
2023/05/09 06:10:03;;;;;;;29.85;16.95;;;;;;;11.94;70.52;101665.97;5052348;28;20370;-49
2023/05/09 06:12:29;;;;;;;26.10;16.42;;;;;;;11.61;72.11;101667.34;5052148;28;20028;-50
2023/05/09 06:14:56;;;;;;;14.30;8.73;;;;;;;12.03;70.71;101672.84;5052392;28;20021;-50
2023/05/09 06:17:22;;;;;;;10.55;3.50;;;;;;;11.93;70.54;101665.13;5051597;28;20078;-50
2023/05/09 06:19:48;;;;;;;5.72;2.10;;;;;;;11.86;71.25;101657.03;5052130;28;20044;-49
2023/05/09 06:22:14;;;;;;;11.80;2.78;;;;;;;11.62;72.12;101660.94;5051929;28;20053;-47
2023/05/09 06:24:41;;;;;;;11.00;2.45;;;;;;;11.85;71.31;101655.38;5049459;28;20107;-45
2023/05/09 06:27:07;;;;;;;11.30;2.83;;;;;;;11.93;70.98;101658.94;5031868;28;20487;-46
2023/05/09 06:29:34;;;;;;;4.28;2.30;;;;;;;12.02;71.31;101657.78;5032080;28;20078;-46
2023/05/09 06:32:00;;;;;;;11.32;3.47;;;;;;;11.97;71.81;101658.34;5048018;28;20097;-46
2023/05/09 06:34:26;;;;;;;9.15;2.55;;;;;;;12.01;71.96;101659.63;5051971;28;20023;-50
2023/05/09 06:36:52;;;;;;;10.95;2.42;;;;;;;12.00;72.46;101651.78;5051389;28;20020;-46
2023/05/09 06:39:19;;;;;;;9.43;2.85;;;;;;;12.15;72.25;101650.63;5051642;28;20121;-47
2023/05/09 06:41:45;;;;;;;7.50;2.28;;;;;;;12.12;72.84;101642.16;5052225;28;20079;-49
2023/05/09 06:44:11;;;;;;;8.90;2.45;;;;;;;12.12;72.90;101644.84;5052491;28;20029;-47
2023/05/09 06:46:37;;;;;;;6.82;2.45;;;;;;;12.22;73.25;101639.97;5050268;28;20127;-49
2023/05/09 06:49:04;;;;;;;8.10;2.22;;;;;;;12.06;73.68;101633.06;5057783;28;20026;-46
2023/05/09 06:51:31;;;;;;;10.88;2.42;;;;;;;12.32;73.53;101640.41;5071822;28;20074;-47
2023/05/09 06:53:57;;;;;;;5.93;2.28;;;;;;;12.25;73.16;101634.19;5063072;28;20048;-46
2023/05/09 06:56:25;;;;;;;11.15;2.60;;;;;;;12.09;74.36;101643.38;5071387;28;20021;-45
2023/05/09 06:58:52;;;;;;;6.43;2.35;;;;;;;12.22;73.94;101631.91;5069580;28;20021;-47
2023/05/09 07:01:18;;;;;;;6.05;1.92;;;;;;;12.12;74.41;101629.56;5051498;28;20032;-46
2023/05/09 07:03:46;;;;;;;10.85;3.00;;;;;;;12.17;73.94;101634.34;5051620;28;20107;-45
2023/05/09 07:06:12;;;;;;;9.10;2.65;;;;;;;11.99;74.48;101632.16;5067559;28;20044;-48
2023/05/09 07:08:39;;;;;;;10.75;2.65;;;;;;;11.84;75.26;101629.59;5060996;28;20037;-47
2023/05/09 07:11:05;;;;;;;12.80;2.97;;;;;;;11.92;75.10;101623.25;5051620;28;20025;-48
2023/05/09 07:13:31;;;;;;;9.90;2.88;;;;;;;12.12;74.91;101623.38;5053491;28;20035;-46
2023/05/09 07:15:57;;;;;;;11.60;2.70;;;;;;;12.02;75.00;101614.84;5054448;28;20037;-47
2023/05/09 07:18:24;;;;;;;8.32;2.65;;;;;;;12.18;74.31;101617.22;5053559;28;20025;-46
2023/05/09 07:20:50;;;;;;;9.13;2.67;;;;;;;12.08;74.94;101617.56;5054310;28;20028;-47
2023/05/09 07:23:16;;;;;;;11.05;2.80;;;;;;;12.08;74.68;101614.88;5054228;28;20127;-46
2023/05/09 07:25:44;;;;;;;10.10;2.60;;;;;;;12.14;74.73;101611.41;5064170;28;20473;-49
2023/05/09 07:28:11;;;;;;;12.55;2.33;;;;;;;12.29;74.17;101613.97;5038988;28;20039;-46
2023/05/09 07:30:38;;;;;;;9.57;2.25;;;;;;;12.18;74.14;101609.16;5042454;28;20527;-49
2023/05/09 07:33:05;;;;;;;12.65;2.65;;;;;;;12.15;74.28;101605.00;5052451;28;20040;-45
2023/05/09 07:35:31;;;;;;;9.85;3.40;;;;;;;12.19;74.19;101605.44;5035127;28;20513;-47
2023/05/09 07:37:57;;;;;;;9.38;2.45;;;;;;;12.29;73.73;101597.88;5035041;28;20075;-48
2023/05/09 07:40:24;;;;;;;8.38;2.30;;;;;;;12.34;72.96;101605.34;5053619;28;20032;-47
2023/05/09 07:42:52;;;;;;;12.27;2.35;;;;;;;12.34;73.01;101610.72;5057391;28;20051;-46
2023/05/09 07:45:18;;;;;;;4.25;1.77;;;;;;;12.26;73.22;101611.69;5051909;28;20371;-49
2023/05/09 07:47:44;;;;;;;8.70;2.25;;;;;;;12.30;73.48;101614.81;5069288;28;20021;-47
2023/05/09 07:50:10;;;;;;;9.48;2.70;;;;;;;11.91;75.35;101615.38;5074913;28;20420;-47
2023/05/09 07:52:37;;;;;;;10.00;2.67;;;;;;;11.95;74.93;101616.66;5074854;28;20048;-47
2023/05/09 07:55:03;;;;;;;10.55;2.55;;;;;;;11.55;75.45;101619.84;5070037;28;20518;-46
2023/05/09 07:57:29;;;;;;;7.93;2.20;;;;;;;11.48;74.75;101620.78;5033976;28;20116;-46
2023/05/09 07:59:56;;;;;;;12.35;3.30;;;;;;;10.98;75.88;101622.56;5034883;28;20394;-49
2023/05/09 08:02:22;;;;;;;13.02;3.13;;;;;;;10.44;78.32;101628.31;5034454;28;20087;-46
2023/05/09 08:04:48;;;;;;;8.10;2.35;;;;;;;10.30;79.23;101628.13;5034852;28;20680;-47
2023/05/09 08:07:14;;;;;;;11.20;2.92;;;;;;;10.29;79.63;101626.47;5034300;28;20061;-46
2023/05/09 08:09:40;;;;;;;12.75;2.97;;;;;;;10.25;79.32;101625.16;5034771;28;20023;-49
2023/05/09 08:12:07;;;;;;;17.10;3.08;;;;;;;9.78;81.84;101623.63;5034862;28;20057;-46
2023/05/09 08:14:33;;;;;;;13.00;2.92;;;;;;;9.59;83.50;101620.63;5044408;28;20043;-48
2023/05/09 08:16:59;;;;;;;11.32;2.50;;;;;;;9.64;83.39;101618.25;5034211;28;20367;-46
2023/05/09 08:19:26;;;;;;;7.43;2.40;;;;;;;9.99;81.66;101622.94;5042623;28;20108;-48
2023/05/09 08:21:52;;;;;;;9.23;2.78;;;;;;;10.17;80.20;101627.91;5054391;28;20032;-47
2023/05/09 08:24:19;;;;;;;8.45;2.40;;;;;;;10.25;79.65;101627.84;5054184;28;20029;-46
2023/05/09 08:26:45;;;;;;;7.78;2.83;;;;;;;10.22;79.42;101628.19;5052662;28;20112;-49
2023/05/09 08:29:11;;;;;;;8.95;3.05;;;;;;;10.01;80.34;101612.03;5052160;28;20064;-47
2023/05/09 08:31:37;;;;;;;11.35;2.53;;;;;;;9.93;81.36;101614.78;5053090;28;20021;-46
2023/05/09 08:34:03;;;;;;;8.70;2.38;;;;;;;10.14;79.87;101612.22;5052918;28;20029;-47
2023/05/09 08:36:31;;;;;;;8.25;2.38;;;;;;;10.36;79.09;101609.66;5053408;28;20017;-48
2023/05/09 08:38:57;;;;;;;9.10;2.40;;;;;;;10.31;79.01;101599.50;5053863;28;20013;-46
2023/05/09 08:41:29;;;;;;;5.72;2.30;;;;;;;10.16;79.69;101602.19;5054314;28;20537;-46
2023/05/09 08:43:56;;;;;;;10.48;2.33;;;;;;;10.35;79.22;101602.66;5053790;28;20021;-46
2023/05/09 08:46:33;;;;;;;8.35;2.30;;;;;;;10.46;78.50;101602.19;5053572;28;20040;-46
2023/05/09 08:49:00;;;;;;;6.72;2.40;;;;;;;10.47;78.26;101604.66;5054032;28;20405;-47
2023/05/09 08:51:28;;;;;;;6.60;2.40;;;;;;;10.52;78.00;101601.44;5052162;28;20060;-46
2023/05/09 08:53:55;;;;;;;6.60;2.28;;;;;;;10.54;77.96;101594.88;5053506;28;20040;-45
2023/05/09 08:56:21;;;;;;;9.02;2.33;;;;;;;10.57;77.43;101601.72;5053346;28;20052;-47
2023/05/09 08:58:48;;;;;;;8.60;2.22;;;;;;;10.63;77.32;101592.09;5053607;28;20469;-45
2023/05/09 09:01:16;;;;;;;10.50;2.70;;;;;;;10.34;78.81;101591.13;5062226;22;20485;-45
2023/05/09 09:03:46;;;;;;;8.95;2.65;;;;;;;10.58;77.64;101590.81;5073480;28;20499;-45
2023/05/09 09:06:13;;;;;;;10.95;2.45;;;;;;;10.44;78.00;101589.00;5073071;28;20074;-46
2023/05/09 09:08:40;;;;;;;9.52;2.80;;;;;;;10.20;78.47;101584.72;5073474;28;20097;-46
2023/05/09 09:11:11;;;;;;;10.20;2.25;;;;;;;10.29;78.43;101575.63;5073436;28;20036;-45
2023/05/09 09:13:40;;;;;;;8.57;2.67;;;;;;;9.93;79.97;101574.66;5073186;28;20025;-48
2023/05/09 09:16:10;;;;;;;6.93;2.17;;;;;;;10.20;78.91;101570.53;5073053;28;20078;-46
2023/05/09 09:18:36;;;;;;;5.82;2.13;;;;;;;10.14;79.41;101574.75;5073200;28;20528;-46
2023/05/09 09:21:08;;;;;;;7.32;2.33;;;;;;;10.00;80.24;101570.25;5073409;28;20032;-46
2023/05/09 09:23:38;;;;;;;9.55;2.88;;;;;;;9.83;81.12;101572.28;5073204;28;20439;-46
2023/05/09 09:26:04;;;;;;;10.27;2.75;;;;;;;9.83;81.55;101574.09;5072487;28;20021;-45
2023/05/09 09:28:31;;;;;;;9.75;2.40;;;;;;;9.72;81.96;101564.72;5073075;28;20032;-46
2023/05/09 09:30:57;;;;;;;8.45;2.63;;;;;;;9.68;82.31;101561.56;5056356;28;20020;-47
2023/05/09 09:33:25;;;;;;;7.43;3.00;;;;;;;9.65;82.24;101555.75;5071457;28;20036;-50
2023/05/09 09:35:53;;;;;;;11.07;3.30;;;;;;;9.62;82.88;101554.28;5076008;28;20541;-48
2023/05/09 09:38:21;;;;;;;9.25;2.90;;;;;;;9.32;84.11;101557.88;5092531;28;20036;-47
2023/05/09 09:40:54;;;;;;;11.40;2.70;;;;;;;9.44;83.31;101546.59;5092205;28;20024;-46
2023/05/09 09:43:30;;;;;;;7.22;2.70;;;;;;;9.79;81.99;101550.41;5092073;28;20028;-46
2023/05/09 09:46:00;;;;;;;9.50;2.80;;;;;;;9.72;81.28;101554.84;5090952;28;20560;-46
2023/05/09 09:48:32;;;;;;;9.93;2.60;;;;;;;9.61;81.77;101552.63;5091724;28;20070;-48
2023/05/09 09:51:08;;;;;;;13.48;3.47;;;;;;;9.14;83.95;101545.69;5091003;28;20020;-50
2023/05/09 09:53:42;;;;;;;18.30;3.70;;;;;;;8.72;86.85;101551.50;5091772;28;20035;-49
2023/05/09 09:56:09;;;;;;;10.18;3.05;;;;;;;8.85;87.32;101548.25;5090505;28;20096;-49
2023/05/09 09:58:36;;;;;;;9.23;2.72;;;;;;;9.12;86.03;101547.72;5092565;28;20043;-50
2023/05/09 10:01:12;;;;;;;10.00;2.65;;;;;;;9.26;85.17;101532.72;5092381;28;20383;-49
2023/05/09 10:03:46;;;;;;;8.00;2.60;;;;;;;9.52;83.71;101532.31;5092070;28;20392;-45
2023/05/09 10:06:16;;;;;;;8.18;2.30;;;;;;;9.49;83.03;101538.03;5089773;28;20028;-46
2023/05/09 10:08:47;;;;;;;9.65;2.80;;;;;;;9.39;83.42;101535.63;5091561;28;20080;-46
2023/05/09 10:11:14;;;;;;;10.35;2.40;;;;;;;9.35;83.82;101536.16;5091497;28;20020;-48
2023/05/09 10:13:41;;;;;;;10.10;2.85;;;;;;;9.14;84.36;101534.16;5091679;28;20085;-46
2023/05/09 10:16:09;;;;;;;12.43;2.65;;;;;;;9.24;84.08;101532.91;5091061;28;20055;-49
2023/05/09 10:18:36;;;;;;;7.93;2.60;;;;;;;9.40;83.09;101539.94;5091280;28;20046;-46
2023/05/09 10:21:04;;;;;;;7.50;2.90;;;;;;;9.15;84.18;101531.31;5091069;28;20024;-46
2023/05/09 10:23:31;;;;;;;12.80;3.20;;;;;;;8.89;85.66;101539.69;5090683;28;20024;-49
2023/05/09 10:26:17;;;;;;;9.15;2.75;;;;;;;8.94;85.82;101548.00;5082398;28;20049;-50
2023/05/09 10:28:48;;;;;;;11.48;2.60;;;;;;;8.96;86.29;101555.84;5091281;28;20118;-46
2023/05/09 10:31:27;;;;;;;10.70;2.42;;;;;;;9.08;85.75;101538.38;5091348;28;20024;-49
2023/05/09 10:33:54;;;;;;;5.47;2.83;;;;;;;9.13;85.23;101551.22;5091048;28;20027;-45
2023/05/09 10:36:25;;;;;;;8.02;2.45;;;;;;;9.17;84.74;101547.19;5091528;28;20032;-46
2023/05/09 10:38:55;;;;;;;10.20;2.67;;;;;;;9.22;84.69;101550.97;5092053;28;20045;-48
2023/05/09 10:41:22;;;;;;;12.15;2.80;;;;;;;9.32;83.96;101549.88;5091893;28;20032;-49
2023/05/09 10:43:49;;;;;;;12.57;3.00;;;;;;;9.30;83.86;101550.06;5091968;28;20039;-46
2023/05/09 10:46:15;;;;;;;22.70;3.22;;;;;;;9.28;84.17;101551.25;5090731;28;20035;-46
2023/05/09 10:48:43;;;;;;;8.57;2.85;;;;;;;9.29;84.26;101552.91;5091922;28;20480;-48
2023/05/09 10:51:10;;;;;;;8.23;2.45;;;;;;;9.25;84.25;101552.44;5091599;28;20027;-49
2023/05/09 10:53:44;;;;;;;5.57;2.30;;;;;;;9.44;83.15;101545.78;5091722;28;20145;-45
2023/05/09 10:56:34;;;;;;;10.25;2.70;;;;;;;9.42;82.63;101550.44;5091648;28;20027;-48
2023/05/09 10:59:01;;;;;;;12.55;2.45;;;;;;;9.30;82.68;101555.41;5092122;28;20508;-48
2023/05/09 11:01:38;;;;;;;4.65;1.92;;;;;;;9.47;82.25;101551.56;5091563;28;20040;-48
2023/05/09 11:04:15;;;;;;;9.45;2.35;;;;;;;9.40;82.41;101555.97;5091965;28;20040;-49
2023/05/09 11:06:49;;;;;;;5.25;2.20;;;;;;;9.42;81.95;101551.28;5091824;28;20024;-48
2023/05/09 11:09:27;;;;;;;7.15;2.55;;;;;;;9.00;83.22;101549.13;5092011;28;20020;-46
2023/05/09 11:12:00;;;;;;;7.18;2.25;;;;;;;9.13;83.16;101546.69;5091585;28;20028;-48
2023/05/09 11:14:30;;;;;;;9.00;2.50;;;;;;;9.31;82.36;101540.19;5091761;28;20118;-46
2023/05/09 11:16:58;;;;;;;7.85;2.17;;;;;;;9.11;82.79;101532.69;5091283;28;20034;-46
2023/05/09 11:19:56;;;;;;;12.82;2.80;;;;;;;8.77;85.05;101527.75;5091641;28;20099;-49
2023/05/09 11:22:27;;;;;;;8.77;2.75;;;;;;;8.97;84.29;101523.59;5091625;28;20020;-48
2023/05/09 11:25:05;;;;;;;8.13;2.35;;;;;;;9.10;83.90;101528.34;5091394;28;20054;-50
2023/05/09 11:27:46;;;;;;;6.78;2.45;;;;;;;9.22;83.41;101534.94;5091065;28;20429;-49
2023/05/09 11:30:17;;;;;;;6.65;2.22;;;;;;;9.41;82.23;101536.25;5091779;28;20430;-46